Time;durP1;ratioP1;P1;durP2;ratioP2;P2;SDS_P1;SDS_P2;PMS_P1;PMS_P2;Temp;Humidity;BMP_temperature;BMP_pressure;BME280_temperature;BME280_humidity;BME280_pressure;Samples;Min_cycle;Max_cycle;Signal;HPM_P1;HPM_P2
2022/06/23 00:01:08;;;;;;;10.00;3.80;;;;;;;15.81;50.38;98658.98;108779;1281;23561;-85
2022/06/23 00:03:40;;;;;;;9.80;3.80;;;;;;;15.79;50.29;98660.27;108819;1281;23007;-84
2022/06/23 00:06:24;;;;;;;10.10;3.90;;;;;;;15.81;50.42;98662.05;108789;1281;23394;-84
2022/06/23 00:08:59;;;;;;;9.90;3.60;;;;;;;15.78;50.39;98664.02;108802;1281;22485;-85
2022/06/23 00:11:49;;;;;;;11.80;3.50;;;;;;;15.70;50.52;98665.47;108893;1281;22655;-85
2022/06/23 00:14:34;;;;;;;10.40;3.90;;;;;;;15.63;50.67;98668.12;108821;1281;22503;-85
2022/06/23 00:17:36;;;;;;;9.10;3.90;;;;;;;15.59;50.58;98670.33;108926;1281;22571;-85
2022/06/23 00:20:39;;;;;;;11.40;4.00;;;;;;;15.53;50.84;98666.05;108992;1281;23326;-85
2022/06/23 00:23:43;;;;;;;9.70;3.60;;;;;;;15.51;50.92;98661.61;108571;1284;22371;-84
2022/06/23 00:26:23;;;;;;;12.20;3.80;;;;;;;15.54;50.90;98672.80;108733;1282;22358;-84
2022/06/23 00:29:31;;;;;;;10.00;4.00;;;;;;;15.55;51.09;98666.80;108773;1282;22423;-85
2022/06/23 00:32:05;;;;;;;9.50;3.50;;;;;;;15.59;51.18;98671.78;108673;1282;22414;-84
2022/06/23 00:34:44;;;;;;;9.70;3.70;;;;;;;15.54;51.22;98671.89;108616;1281;22364;-84
2022/06/23 00:37:19;;;;;;;9.90;3.60;;;;;;;15.47;51.27;98665.63;108791;1281;22382;-85
2022/06/23 00:40:20;;;;;;;9.30;3.60;;;;;;;15.41;51.29;98664.75;108753;1281;22497;-86
2022/06/23 00:43:07;;;;;;;11.30;4.50;;;;;;;15.37;51.51;98664.52;108812;1281;22559;-85
2022/06/23 00:45:43;;;;;;;10.50;4.10;;;;;;;15.35;51.57;98667.95;108633;1281;22149;-85
2022/06/23 00:48:36;;;;;;;10.80;4.40;;;;;;;15.31;51.65;98671.30;109014;1281;22419;-85
2022/06/23 00:51:16;;;;;;;8.10;3.50;;;;;;;15.31;51.69;98675.96;108975;1281;23316;-85
2022/06/23 00:53:49;;;;;;;10.00;4.00;;;;;;;15.29;51.76;98674.33;109012;1281;22240;-84
2022/06/23 00:57:05;;;;;;;9.50;3.60;;;;;;;15.32;51.78;98677.47;108663;1281;22234;-85
2022/06/23 00:59:56;;;;;;;;;;;;;;;;;;;;;
2022/06/23 01:02:39;;;;;;;9.70;3.30;;;;;;;15.37;51.85;98679.08;109024;1281;22397;-85
2022/06/23 01:05:26;;;;;;;9.30;3.50;;;;;;;15.40;51.93;98678.30;108801;1281;23037;-85
2022/06/23 01:08:08;;;;;;;9.70;3.80;;;;;;;15.38;51.95;98689.45;108960;1281;22470;-85
2022/06/23 01:10:48;;;;;;;8.30;3.20;;;;;;;15.35;51.99;98694.89;108978;1281;22415;-85
2022/06/23 01:13:42;;;;;;;8.30;3.50;;;;;;;15.26;52.13;98693.30;108899;1281;23123;-85
2022/06/23 01:17:02;;;;;;;13.70;3.70;;;;;;;15.16;52.19;98691.24;108814;1281;22625;-85
2022/06/23 01:20:15;;;;;;;10.60;4.40;;;;;;;15.08;52.37;98697.58;108994;1281;22880;-85
2022/06/23 01:23:11;;;;;;;8.40;3.70;;;;;;;14.99;52.40;98695.23;108811;1281;22342;-85
2022/06/23 01:25:50;;;;;;;10.20;3.50;;;;;;;14.94;52.42;98697.81;109004;1281;22282;-85
2022/06/23 01:28:23;;;;;;;9.60;3.60;;;;;;;14.95;52.51;98696.36;109053;1281;23381;-85
2022/06/23 01:31:51;;;;;;;;;;;;;;;;;;;;;
2022/06/23 01:34:42;;;;;;;8.10;3.30;;;;;;;14.98;52.62;98690.10;108771;1282;22365;-85
2022/06/23 01:38:09;;;;;;;9.40;3.60;;;;;;;14.93;52.68;98690.38;108965;1281;23066;-86
2022/06/23 01:41:15;;;;;;;9.40;3.40;;;;;;;14.90;52.70;98690.15;109025;1280;22192;-84
2022/06/23 01:44:18;;;;;;;10.50;3.80;;;;;;;14.85;52.83;98701.86;108939;1281;22375;-84
2022/06/23 01:47:06;;;;;;;10.40;3.70;;;;;;;14.73;52.91;98700.34;109098;1281;22929;-85
2022/06/23 01:49:52;;;;;;;10.90;3.80;;;;;;;14.63;53.01;98708.13;108745;1281;22545;-85
2022/06/23 01:52:32;;;;;;;10.40;3.80;;;;;;;14.49;53.09;98709.39;108823;1281;22345;-84
2022/06/23 01:55:25;;;;;;;11.20;4.00;;;;;;;14.36;53.09;98711.70;108992;1281;22454;-85
2022/06/23 01:58:36;;;;;;;10.00;3.30;;;;;;;14.25;53.26;98715.81;108756;1281;22352;-84
2022/06/23 02:01:42;;;;;;;10.80;3.60;;;;;;;14.14;53.30;98715.35;108838;1281;22431;-84
2022/06/23 02:05:02;;;;;;;10.90;3.70;;;;;;;14.06;53.41;98720.03;108748;1281;22613;-86
2022/06/23 02:07:46;;;;;;;11.80;3.60;;;;;;;13.98;53.38;98721.88;109025;1281;22435;-85
2022/06/23 02:11:05;;;;;;;7.70;3.80;;;;;;;13.90;53.57;98728.69;108987;1281;22532;-85
2022/06/23 02:14:19;;;;;;;9.90;4.10;;;;;;;13.82;53.72;98721.93;108825;1281;23053;-85
2022/06/23 02:17:52;;;;;;;;;;;;;;;;;;;;;
2022/06/23 02:21:35;;;;;;;;;;;;;;;;;;;;;
2022/06/23 02:25:28;;;;;;;;;;;;;;;;;;;;;
2022/06/23 02:28:47;;;;;;;10.10;3.90;;;;;;;13.56;54.09;98743.14;108310;1288;22262;-85
2022/06/23 02:32:48;;;;;;;;;;;;;;;;;;;;;
2022/06/23 02:35:58;;;;;;;;;;;;;;;;;;;;;
2022/06/23 02:39:18;;;;;;;9.80;3.80;;;;;;;13.72;54.27;98746.25;107153;1299;22482;-85
2022/06/23 02:42:17;;;;;;;10.50;3.60;;;;;;;13.76;54.35;98749.11;107065;1300;22447;-85
2022/06/23 02:45:43;;;;;;;9.20;3.60;;;;;;;13.82;54.45;98756.13;107128;1299;23212;-85
2022/06/23 02:49:23;;;;;;;;;;;;;;;;;;;;;
2022/06/23 02:53:01;;;;;;;11.90;4.20;;;;;;;13.72;54.78;98765.13;107105;1300;23031;-85
2022/06/23 02:57:36;;;;;;;9.30;3.80;;;;;;;13.73;54.94;98769.75;107108;1299;22464;-85
2022/06/23 03:05:08;;;;;;;;;;;;;;;;;;;;;
2022/06/23 03:08:21;;;;;;;10.20;3.60;;;;;;;13.84;55.01;98782.25;106614;1304;22337;-85
2022/06/23 03:12:19;;;;;;;;;;;;;;;;;;;;;
2022/06/23 03:16:34;;;;;;;9.80;3.50;;;;;;;13.99;55.28;98774.22;107391;1296;22495;-86
2022/06/23 03:19:20;;;;;;;;;;;;;;;;;;;;;
2022/06/23 03:23:16;;;;;;;10.70;3.60;;;;;;;14.06;55.27;98776.98;107375;1295;22557;-85
2022/06/23 03:26:45;;;;;;;9.90;3.90;;;;;;;14.02;55.44;98772.52;107008;1302;22567;-86
2022/06/23 03:29:38;;;;;;;;;;;;;;;;;;;;;
2022/06/23 03:33:10;;;;;;;;;;;;;;;;;;;;;
2022/06/23 03:36:28;;;;;;;10.00;3.00;;;;;;;14.12;55.56;98788.44;107123;1299;22572;-85
2022/06/23 03:43:11;;;;;;;28.70;4.30;;;;;;;14.43;55.82;98789.35;107123;1300;22328;-85
2022/06/23 03:46:52;;;;;;;22.80;3.70;;;;;;;14.61;55.77;98786.73;107425;1293;22319;-85
2022/06/23 03:50:02;;;;;;;13.90;3.60;;;;;;;14.79;55.69;98792.80;107118;1299;23082;-85
2022/06/23 03:52:58;;;;;;;10.50;3.50;;;;;;;14.91;55.77;98792.74;107135;1299;22586;-84
2022/06/23 03:56:46;;;;;;;;;;;;;;;;;;;;;
2022/06/23 04:00:29;;;;;;;9.50;4.10;;;;;;;15.10;55.80;98795.82;106699;1304;22266;-85
2022/06/23 04:03:36;;;;;;;12.80;3.90;;;;;;;15.28;55.77;98799.09;106836;1299;22518;-85
2022/06/23 04:06:55;;;;;;;9.10;3.90;;;;;;;15.46;55.76;98797.71;106753;1304;22401;-85
2022/06/23 04:09:52;;;;;;;;;;;;;;;;;;;;;
2022/06/23 04:12:31;;;;;;;15.70;4.10;;;;;;;15.83;55.89;98796.67;106839;1302;22194;-85
2022/06/23 04:15:22;;;;;;;;;;;;;;;;;;;;;
2022/06/23 04:18:21;;;;;;;12.60;3.50;;;;;;;16.13;55.93;98793.89;106943;1300;22218;-85
2022/06/23 04:21:07;;;;;;;9.70;3.60;;;;;;;16.30;55.93;98798.15;107111;1300;22444;-85
2022/06/23 04:23:45;;;;;;;8.70;3.60;;;;;;;16.39;55.86;98800.64;107114;1300;22388;-84
2022/06/23 04:26:23;;;;;;;13.20;3.70;;;;;;;16.55;55.87;98807.60;107228;1293;22326;-85
2022/06/23 04:28:58;;;;;;;11.10;3.40;;;;;;;16.70;55.95;98809.70;107339;1294;23218;-84
2022/06/23 04:31:41;;;;;;;10.80;3.60;;;;;;;16.84;55.84;98804.55;107361;1294;22936;-84
2022/06/23 04:34:39;;;;;;;12.30;4.10;;;;;;;17.03;55.87;98808.20;107482;1288;23136;-85
2022/06/23 04:37:36;;;;;;;11.70;3.10;;;;;;;17.27;55.84;98815.23;108386;1287;22502;-85
2022/06/23 04:41:10;;;;;;;9.80;2.40;;;;;;;17.52;55.69;98811.65;108087;1288;22968;-85
2022/06/23 04:43:52;;;;;;;11.10;2.30;;;;;;;17.76;55.33;98815.54;108666;1281;22319;-85
2022/06/23 04:46:37;;;;;;;7.10;2.40;;;;;;;17.93;55.32;98813.89;108824;1280;22268;-85
2022/06/23 04:49:55;;;;;;;6.50;2.10;;;;;;;18.11;55.21;98818.80;109083;1279;22411;-85
2022/06/23 04:53:02;;;;;;;5.00;1.90;;;;;;;18.31;55.11;98818.30;108995;1281;22370;-85
2022/06/23 04:55:50;;;;;;;12.50;2.50;;;;;;;18.51;54.92;98823.46;109027;1280;22482;-85
2022/06/23 04:58:46;;;;;;;25.40;3.10;;;;;;;18.65;54.91;98824.11;109356;1279;22207;-85
2022/06/23 05:01:59;;;;;;;20.20;2.90;;;;;;;18.84;54.58;98821.54;109107;1279;22586;-85
2022/06/23 05:04:48;;;;;;;8.50;2.20;;;;;;;19.03;54.49;98821.77;109115;1279;22374;-85
2022/06/23 05:07:41;;;;;;;;;;;;;;;;;;;;;
2022/06/23 05:10:39;;;;;;;11.70;2.30;;;;;;;19.46;54.16;98824.30;109055;1279;22415;-86
2022/06/23 05:13:39;;;;;;;11.40;2.20;;;;;;;19.66;53.95;98822.74;109236;1279;22556;-85
2022/06/23 05:16:19;;;;;;;10.60;2.00;;;;;;;19.83;54.05;98828.48;109091;1279;22891;-85
2022/06/23 05:18:53;;;;;;;7.80;2.00;;;;;;;20.04;53.97;98829.85;108991;1281;22377;-84
2022/06/23 05:21:32;;;;;;;5.80;1.90;;;;;;;20.28;53.87;98837.14;108938;1281;23121;-84
2022/06/23 05:24:08;;;;;;;9.60;2.00;;;;;;;20.46;53.96;98830.99;108797;1281;22509;-84
2022/06/23 05:26:51;;;;;;;7.60;2.10;;;;;;;20.64;53.77;98831.60;109003;1281;22336;-84
2022/06/23 05:29:27;;;;;;;8.90;2.20;;;;;;;20.80;53.63;98831.48;108818;1281;22439;-84
2022/06/23 05:32:27;;;;;;;8.70;2.30;;;;;;;20.95;53.49;98837.05;109060;1281;22483;-85
2022/06/23 05:35:13;;;;;;;10.00;2.00;;;;;;;21.13;53.57;98835.36;108790;1281;23072;-85
2022/06/23 05:37:51;;;;;;;15.60;3.10;;;;;;;21.36;53.57;98834.27;108687;1281;23207;-84
2022/06/23 05:40:43;;;;;;;12.40;2.80;;;;;;;21.54;53.53;98837.84;109038;1281;22421;-85
2022/06/23 05:43:18;;;;;;;12.40;2.80;;;;;;;21.77;53.40;98838.98;109001;1279;22433;-85
2022/06/23 05:45:58;;;;;;;9.00;2.40;;;;;;;21.91;53.19;98833.86;108823;1281;22174;-85
2022/06/23 05:48:45;;;;;;;11.40;2.10;;;;;;;22.10;52.99;98833.64;108962;1280;22347;-84
2022/06/23 05:51:35;;;;;;;15.00;2.80;;;;;;;22.30;53.08;98840.30;109056;1280;22455;-85
2022/06/23 05:54:37;;;;;;;11.40;2.60;;;;;;;22.46;52.99;98839.80;109164;1280;22449;-84
2022/06/23 05:57:18;;;;;;;11.80;2.10;;;;;;;22.65;52.92;98837.14;109002;1281;22429;-84
2022/06/23 06:00:12;;;;;;;17.50;2.80;;;;;;;22.81;52.86;98837.48;108776;1281;22435;-85
2022/06/23 06:03:14;;;;;;;10.70;2.10;;;;;;;23.05;52.85;98837.59;108324;1287;22473;-83
2022/06/23 06:05:47;;;;;;;10.20;2.10;;;;;;;23.30;52.88;98837.23;108276;1287;22582;-85
2022/06/23 06:08:30;;;;;;;9.00;2.10;;;;;;;23.56;53.02;98844.35;108107;1287;22212;-84
2022/06/23 06:11:15;;;;;;;9.50;1.90;;;;;;;23.83;52.79;98853.05;108241;1287;23314;-84
2022/06/23 06:13:54;;;;;;;9.80;2.30;;;;;;;24.01;52.68;98846.40;108170;1287;22526;-84
2022/06/23 06:16:27;;;;;;;8.70;1.80;;;;;;;24.22;52.56;98857.77;108383;1287;22494;-83
2022/06/23 06:18:59;;;;;;;6.60;2.10;;;;;;;24.48;52.72;98861.92;108091;1287;22482;-84
2022/06/23 06:21:38;;;;;;;12.10;3.60;;;;;;;24.65;52.39;98863.58;108136;1287;22285;-85
2022/06/23 06:24:18;;;;;;;12.30;2.60;;;;;;;24.82;52.57;98861.53;108089;1287;22396;-84
2022/06/23 06:27:05;;;;;;;10.80;2.30;;;;;;;25.01;52.53;98864.84;108105;1287;23242;-84
2022/06/23 06:29:46;;;;;;;10.00;2.20;;;;;;;25.19;52.43;98875.10;108315;1287;22358;-85
2022/06/23 06:32:37;;;;;;;10.40;1.90;;;;;;;25.37;52.01;98873.56;108291;1287;23223;-84
2022/06/23 06:36:07;;;;;;;7.90;2.10;;;;;;;25.50;51.94;98879.61;108339;1287;22588;-85
2022/06/23 06:38:59;;;;;;;9.30;1.90;;;;;;;25.71;51.94;98876.91;107485;1294;22409;-84
2022/06/23 06:41:41;;;;;;;6.70;2.00;;;;;;;25.88;51.79;98872.36;108074;1290;22226;-84
2022/06/23 06:44:15;;;;;;;8.40;2.00;;;;;;;26.02;51.73;98876.47;107926;1289;22488;-84
2022/06/23 06:47:08;;;;;;;8.60;2.20;;;;;;;26.15;51.40;98875.45;108058;1290;22233;-84
2022/06/23 06:50:07;;;;;;;;;;;;;;;;;;;;;
2022/06/23 06:53:06;;;;;;;;;;;;;;;;;;;;;
2022/06/23 06:56:51;;;;;;;7.60;2.10;;;;;;;26.43;51.21;98878.66;108076;1290;22600;-83
2022/06/23 06:59:50;;;;;;;11.10;2.30;;;;;;;26.51;50.85;98879.11;107277;1295;22774;-83
2022/06/23 07:02:56;;;;;;;8.70;1.90;;;;;;;26.53;51.05;98883.31;107323;1296;22486;-82
2022/06/23 07:06:38;;;;;;;8.30;2.00;;;;;;;26.73;50.70;98879.52;107335;1296;22219;-82
2022/06/23 07:09:55;;;;;;;7.30;2.30;;;;;;;26.95;50.66;98883.16;107124;1299;23285;-82
2022/06/23 07:13:13;;;;;;;9.30;1.80;;;;;;;27.13;50.28;98886.03;107128;1300;22966;-86
2022/06/23 07:16:34;;;;;;;6.00;2.00;;;;;;;27.14;49.77;98885.17;103275;1296;5442988;-84
2022/06/23 07:20:14;;;;;;;5.00;1.70;;;;;;;27.33;50.12;98897.38;107510;1293;23182;-84
2022/06/23 07:24:08;;;;;;;;;;;;;;;;;;;;;
2022/06/23 07:27:46;;;;;;;;;;;;;;;;;;;;;
2022/06/23 07:31:08;;;;;;;;;;;;;;;;;;;;;
2022/06/23 07:34:36;;;;;;;6.00;1.70;;;;;;;27.61;49.43;98905.02;106398;1309;22422;-82
2022/06/23 07:38:25;;;;;;;6.20;1.70;;;;;;;27.83;49.20;98909.56;106312;1310;22276;-85
2022/06/23 07:41:43;;;;;;;7.30;1.70;;;;;;;27.99;49.05;98911.04;105715;1314;22394;-86
2022/06/23 07:44:46;;;;;;;5.70;1.70;;;;;;;28.14;48.70;98916.30;106378;1308;22981;-85
2022/06/23 07:47:39;;;;;;;5.60;1.50;;;;;;;28.29;48.52;98911.13;106440;1308;22252;-84
2022/06/23 07:50:29;;;;;;;5.80;1.40;;;;;;;28.36;48.18;98910.72;106467;1308;22272;-84
2022/06/23 07:53:27;;;;;;;7.60;1.50;;;;;;;28.52;48.13;98911.37;106339;1309;22106;-84
2022/06/23 07:56:05;;;;;;;5.10;1.30;;;;;;;28.70;48.01;98913.27;106455;1308;22455;-83
2022/06/23 07:58:36;;;;;;;4.80;1.50;;;;;;;28.82;47.83;98914.98;106525;1308;23088;-85
2022/06/23 08:01:14;;;;;;;4.40;1.30;;;;;;;28.91;47.35;98912.83;106784;1302;22470;-88
2022/06/23 08:03:56;;;;;;;7.10;1.60;;;;;;;28.75;46.47;98913.35;107199;1296;22576;-85
2022/06/23 08:06:31;;;;;;;4.20;1.50;;;;;;;28.54;47.12;98921.65;107288;1296;22483;-85
2022/06/23 08:09:28;;;;;;;5.40;1.30;;;;;;;28.61;46.85;98910.58;107192;1298;22438;-85
2022/06/23 08:16:49;;;;;;;2.90;1.20;;;;;;;28.83;46.10;98909.06;107542;1290;23285;-86
2022/06/23 08:18:01;;;;;;;4.50;1.20;;;;;;;28.90;46.35;98906.52;108528;1281;22406;-87
2022/06/23 08:20:56;;;;;;;4.10;1.20;;;;;;;28.84;45.50;98907.46;109128;1281;22440;-93
2022/06/23 08:23:32;;;;;;;3.60;1.30;;;;;;;28.46;45.30;98908.05;108985;1281;22338;-87
2022/06/23 08:26:05;;;;;;;7.90;1.80;;;;;;;28.50;46.03;98910.71;108971;1281;22263;-84
2022/06/23 08:28:37;;;;;;;4.30;1.30;;;;;;;28.79;45.98;98919.31;108973;1281;22990;-84
2022/06/23 08:31:18;;;;;;;4.60;1.70;;;;;;;29.07;45.57;98917.64;108870;1281;22370;-83
2022/06/23 08:33:48;;;;;;;6.50;1.40;;;;;;;29.26;45.52;98919.24;108705;1281;23043;-83
2022/06/23 08:36:27;;;;;;;6.30;1.50;;;;;;;29.31;45.46;98916.14;109029;1281;22397;-84
2022/06/23 08:39:11;;;;;;;5.40;1.20;;;;;;;29.55;45.39;98913.74;108709;1281;22373;-84
2022/06/23 08:41:52;;;;;;;4.60;1.40;;;;;;;29.67;45.03;98915.82;109008;1281;23536;-84
2022/06/23 08:44:44;;;;;;;5.10;1.30;;;;;;;29.91;45.02;98913.91;108818;1281;22522;-84
2022/06/23 08:48:23;;;;;;;5.10;1.30;;;;;;;30.16;44.88;98911.25;108833;1281;22655;-84
2022/06/23 08:51:19;;;;;;;;;;;;;;;;;;;;;
2022/06/23 08:54:15;;;;;;;5.70;1.50;;;;;;;30.44;44.45;98902.52;108265;1287;22375;-84
2022/06/23 08:56:54;;;;;;;4.90;1.20;;;;;;;30.59;44.32;98905.26;108243;1288;22549;-84
2022/06/23 08:59:38;;;;;;;7.30;1.50;;;;;;;30.72;44.37;98898.49;108273;1287;22350;-83
2022/06/23 09:02:37;;;;;;;4.00;1.30;;;;;;;30.93;44.27;98902.33;108442;1287;22532;-83
2022/06/23 09:05:34;;;;;;;5.30;1.20;;;;;;;31.09;43.67;98897.71;108226;1287;23409;-83
2022/06/23 09:08:45;;;;;;;3.60;1.20;;;;;;;31.22;43.59;98900.56;108389;1287;22438;-84
2022/06/23 09:11:41;;;;;;;6.20;1.50;;;;;;;31.02;42.13;98893.35;108141;1287;22534;-87
2022/06/23 09:14:28;;;;;;;5.90;1.20;;;;;;;30.44;41.64;98897.33;108340;1287;22259;-88
2022/06/23 09:17:25;;;;;;;3.70;1.20;;;;;;;29.87;41.67;98903.08;108274;1287;22431;-88
2022/06/23 09:20:04;;;;;;;5.30;1.30;;;;;;;29.82;42.43;98901.19;108403;1287;22779;-85
2022/06/23 09:22:43;;;;;;;4.20;1.40;;;;;;;30.15;42.42;98897.89;108213;1289;22980;-85
2022/06/23 09:25:33;;;;;;;4.30;1.20;;;;;;;30.47;42.15;98897.94;108636;1281;22460;-86
2022/06/23 09:28:21;;;;;;;3.70;1.20;;;;;;;30.66;42.17;98888.92;108700;1281;22971;-84
2022/06/23 09:31:01;;;;;;;3.90;1.30;;;;;;;30.88;41.92;98890.71;108962;1281;22357;-84
2022/06/23 09:33:57;;;;;;;8.50;1.60;;;;;;;31.09;41.74;98896.40;108958;1281;22454;-85
2022/06/23 09:36:58;;;;;;;6.20;1.50;;;;;;;31.13;41.47;98895.15;108978;1281;22387;-85
2022/06/23 09:39:34;;;;;;;5.20;1.20;;;;;;;31.27;41.27;98896.48;109052;1281;22278;-84
2022/06/23 09:42:30;;;;;;;4.90;1.30;;;;;;;31.53;41.31;98898.55;108974;1281;23024;-84
2022/06/23 09:45:30;;;;;;;3.90;1.20;;;;;;;31.71;41.15;98895.36;108696;1281;23184;-85
2022/06/23 09:48:20;;;;;;;5.40;1.30;;;;;;;31.80;40.12;98893.25;108972;1281;22510;-87
2022/06/23 09:50:59;;;;;;;5.50;1.40;;;;;;;31.44;39.92;98891.48;108908;1281;22596;-86
2022/06/23 09:53:32;;;;;;;3.70;1.20;;;;;;;31.32;40.47;98890.50;109108;1281;22476;-85
2022/06/23 09:56:38;;;;;;;6.30;1.20;;;;;;;31.50;40.09;98889.43;109147;1280;22401;-84
2022/06/23 09:59:35;;;;;;;6.60;1.50;;;;;;;31.36;39.64;98890.14;108924;1281;22926;-83
2022/06/23 10:02:32;;;;;;;4.00;1.20;;;;;;;31.52;40.44;98896.31;108979;1281;22455;-83
2022/06/23 10:06:18;;;;;;;3.80;1.20;;;;;;;31.51;40.04;98889.77;109190;1280;22473;-84
2022/06/23 10:09:23;;;;;;;5.10;1.10;;;;;;;31.82;39.91;98894.19;108279;1288;22265;-84
2022/06/23 10:12:32;;;;;;;4.20;1.10;;;;;;;31.86;39.18;98887.11;108072;1288;22317;-84
2022/06/23 10:15:08;;;;;;;7.60;1.90;;;;;;;31.65;39.32;98887.37;108256;1288;22610;-85
2022/06/23 10:17:59;;;;;;;3.80;1.30;;;;;;;31.77;39.28;98896.22;108045;1288;22522;-83
2022/06/23 10:20:47;;;;;;;4.60;1.40;;;;;;;31.93;39.38;98890.97;108040;1290;23416;-82
2022/06/23 10:23:35;;;;;;;6.90;1.40;;;;;;;32.02;39.42;98884.98;108042;1289;22482;-83
2022/06/23 10:26:29;;;;;;;4.30;1.40;;;;;;;32.18;39.21;98888.23;108291;1287;23201;-83
2022/06/23 10:29:24;;;;;;;7.00;2.00;;;;;;;32.25;38.89;98889.02;108264;1287;22473;-83
2022/06/23 10:32:25;;;;;;;5.60;1.40;;;;;;;32.33;38.88;98897.77;108357;1286;22214;-82
2022/06/23 10:35:32;;;;;;;4.90;1.10;;;;;;;32.48;38.69;98896.48;108280;1287;22537;-82
2022/06/23 10:38:39;;;;;;;6.00;1.50;;;;;;;32.62;38.72;98892.66;108259;1287;22411;-82
2022/06/23 10:41:46;;;;;;;5.60;1.40;;;;;;;32.68;38.27;98889.81;108259;1287;23066;-82
2022/06/23 10:44:51;;;;;;;5.70;1.30;;;;;;;32.67;38.14;98889.62;108435;1281;22376;-81
2022/06/23 10:47:47;;;;;;;5.20;1.30;;;;;;;32.71;38.18;98888.73;109212;1281;22370;-81
2022/06/23 10:50:51;;;;;;;4.60;1.00;;;;;;;32.76;37.85;98893.33;109029;1281;22442;-82
2022/06/23 10:53:43;;;;;;;3.70;1.20;;;;;;;32.64;37.55;98895.13;109220;1280;22473;-81
2022/06/23 10:56:28;;;;;;;4.80;1.20;;;;;;;32.54;37.47;98893.78;108759;1281;23138;-81
2022/06/23 10:59:31;;;;;;;4.10;1.20;;;;;;;32.58;37.64;98884.89;108901;1281;22485;-81
2022/06/23 11:02:52;;;;;;;4.40;1.00;;;;;;;32.65;37.48;98886.11;109256;1281;22366;-81
2022/06/23 11:05:44;;;;;;;2.80;1.20;;;;;;;32.60;37.07;98879.98;109241;1280;22486;-80
2022/06/23 11:08:37;;;;;;;5.50;1.10;;;;;;;32.56;37.09;98878.22;108995;1281;22467;-82
2022/06/23 11:11:07;;;;;;;4.30;1.20;;;;;;;32.49;36.98;98882.88;109216;1281;22458;-79
2022/06/23 11:13:56;;;;;;;5.20;1.20;;;;;;;32.53;37.06;98883.98;108901;1281;22431;-80
2022/06/23 11:18:02;;;;;;;5.70;1.20;;;;;;;32.54;36.66;98886.43;109002;1281;22445;-81
2022/06/23 11:21:13;;;;;;;5.00;1.10;;;;;;;32.64;36.54;98881.13;108786;1281;22483;-81
2022/06/23 11:24:14;;;;;;;3.80;1.00;;;;;;;32.72;36.47;98877.85;108971;1281;22318;-80
2022/06/23 11:27:24;;;;;;;6.60;1.30;;;;;;;32.76;36.46;98878.17;108768;1282;22448;-80
2022/06/23 11:30:25;;;;;;;6.00;1.10;;;;;;;32.81;36.21;98873.43;108864;1281;22516;-83
2022/06/23 11:33:38;;;;;;;5.20;1.20;;;;;;;32.91;36.26;98876.27;108796;1281;22517;-83
2022/06/23 11:36:24;;;;;;;5.40;1.20;;;;;;;32.78;35.06;98872.68;109065;1281;22198;-84
2022/06/23 11:39:39;;;;;;;3.70;1.00;;;;;;;32.52;35.53;98873.52;108814;1281;22422;-82
2022/06/23 11:42:53;;;;;;;9.60;1.70;;;;;;;32.47;35.60;98866.49;109017;1281;22463;-83
2022/06/23 11:45:40;;;;;;;4.90;1.50;;;;;;;32.58;35.72;98869.39;108813;1281;22445;-83
2022/06/23 11:48:50;;;;;;;4.90;1.00;;;;;;;32.61;35.37;98864.90;108928;1280;22250;-82
2022/06/23 11:51:53;;;;;;;4.70;1.10;;;;;;;32.59;35.48;98862.99;109004;1280;22687;-83
2022/06/23 11:54:51;;;;;;;6.10;1.20;;;;;;;32.53;35.41;98853.23;109050;1281;22405;-83
2022/06/23 11:58:12;;;;;;;4.80;1.20;;;;;;;32.57;35.34;98860.59;108839;1281;22383;-82
2022/06/23 12:01:01;;;;;;;8.10;1.30;;;;;;;32.67;35.17;98862.58;108048;1288;23069;-82
2022/06/23 12:03:55;;;;;;;6.10;1.50;;;;;;;32.70;35.00;98858.99;108039;1288;22513;-82
2022/06/23 12:07:03;;;;;;;4.10;1.40;;;;;;;32.75;35.07;98863.73;108007;1288;22438;-81
2022/06/23 12:10:18;;;;;;;5.20;1.30;;;;;;;32.74;34.53;98866.31;108142;1288;23169;-84
2022/06/23 12:13:28;;;;;;;5.70;1.30;;;;;;;32.64;34.65;98863.65;108167;1288;22485;-84
2022/06/23 12:16:15;;;;;;;5.00;1.30;;;;;;;32.63;34.49;98854.48;107957;1288;22498;-83
2022/06/23 12:18:55;;;;;;;7.20;1.50;;;;;;;32.65;34.50;98859.03;107807;1290;22487;-84
2022/06/23 12:21:57;;;;;;;4.30;1.10;;;;;;;32.67;34.48;98861.27;108272;1287;22450;-82
2022/06/23 12:25:36;;;;;;;5.80;1.10;;;;;;;32.47;33.93;98849.86;108178;1287;22305;-81
2022/06/23 12:29:14;;;;;;;18.30;6.40;;;;;;;32.32;34.37;98857.92;107212;1296;22464;-83
2022/06/23 12:33:00;;;;;;;6.50;1.70;;;;;;;32.31;34.38;98854.51;107318;1295;22475;-82
2022/06/23 12:35:36;;;;;;;15.30;5.80;;;;;;;32.32;34.24;98859.17;106904;1300;23228;-82
2022/06/23 12:42:16;;;;;;;5.00;1.60;;;;;;;32.11;33.99;98855.60;107217;1296;22488;-82
2022/06/23 12:49:15;;;;;;;5.30;1.20;;;;;;;31.89;33.80;98862.91;107283;1296;22564;-82
2022/06/23 12:53:14;;;;;;;;;;;;;;;;;;;;;
2022/06/23 13:00:28;;;;;;;;;;;;;;;;;;;;;
2022/06/23 13:03:55;;;;;;;;;;;;;;;;;;;;;
2022/06/23 13:07:15;;;;;;;8.20;2.80;;;;;;;31.43;33.56;98844.99;107344;1295;24171;-83
2022/06/23 13:10:37;;;;;;;;;;;;;;;;;;;;;
2022/06/23 13:13:43;;;;;;;3.60;1.10;;;;;;;31.33;33.39;98847.41;107959;1287;22492;-83
2022/06/23 13:16:24;;;;;;;6.50;1.70;;;;;;;31.24;33.26;98837.27;107537;1293;23241;-82
2022/06/23 13:19:01;;;;;;;6.50;1.60;;;;;;;31.21;33.45;98839.68;107437;1294;22247;-81
2022/06/23 13:21:35;;;;;;;4.20;1.20;;;;;;;31.18;33.21;98844.91;107612;1292;22222;-82
2022/06/23 13:24:10;;;;;;;6.80;2.10;;;;;;;31.12;33.31;98843.61;107586;1292;23159;-81
2022/06/23 13:27:07;;;;;;;2.90;1.10;;;;;;;31.03;33.36;98840.05;107583;1293;22226;-82
2022/06/23 13:29:47;;;;;;;4.50;1.20;;;;;;;30.97;33.12;98837.55;107993;1287;22501;-84
2022/06/23 13:32:46;;;;;;;4.50;1.20;;;;;;;30.94;33.34;98833.85;108419;1287;22374;-82
2022/06/23 13:35:52;;;;;;;7.50;2.00;;;;;;;30.99;33.07;98841.23;108385;1286;22484;-82
2022/06/23 13:38:52;;;;;;;3.50;1.30;;;;;;;30.95;33.10;98833.73;108304;1287;23325;-83
2022/06/23 13:41:51;;;;;;;3.90;1.00;;;;;;;30.97;33.02;98839.91;108316;1287;22540;-83
2022/06/23 13:44:55;;;;;;;2.30;1.00;;;;;;;30.90;32.82;98829.27;107914;1288;22434;-82
2022/06/23 13:48:32;;;;;;;;;;;;;;;;;;;;;
2022/06/23 13:51:40;;;;;;;4.40;1.20;;;;;;;30.98;33.09;98821.13;108401;1281;23114;-83
2022/06/23 13:54:24;;;;;;;4.00;1.10;;;;;;;31.04;32.88;98814.45;108776;1281;22406;-83
2022/06/23 13:57:07;;;;;;;8.80;1.10;;;;;;;31.06;33.12;98805.60;108995;1281;22460;-82
2022/06/23 14:00:07;;;;;;;3.40;1.10;;;;;;;31.08;32.82;98806.08;109163;1281;22426;-82
2022/06/23 14:03:41;;;;;;;3.90;1.00;;;;;;;31.10;32.84;98808.98;109109;1280;22648;-82
2022/06/23 14:07:06;;;;;;;4.40;1.00;;;;;;;31.08;32.48;98808.73;108665;1281;23263;-82
2022/06/23 14:10:07;;;;;;;4.50;1.40;;;;;;;30.96;32.76;98806.45;109218;1280;22420;-81
2022/06/23 14:13:44;;;;;;;4.90;1.30;;;;;;;31.01;32.65;98801.98;109257;1281;22502;-82
2022/06/23 14:17:25;;;;;;;3.10;1.30;;;;;;;31.02;32.45;98809.63;109161;1281;22294;-81
2022/06/23 14:19:59;;;;;;;3.30;1.10;;;;;;;31.07;32.66;98809.60;108697;1281;22608;-83
2022/06/23 14:22:55;;;;;;;4.60;1.30;;;;;;;31.06;32.61;98804.84;108917;1281;22416;-82
2022/06/23 14:25:37;;;;;;;4.60;1.10;;;;;;;31.13;32.61;98805.61;108906;1281;22506;-82
2022/06/23 14:28:19;;;;;;;5.10;1.10;;;;;;;31.15;32.47;98802.08;108785;1280;22456;-83
2022/06/23 14:31:15;;;;;;;2.80;1.10;;;;;;;31.17;32.51;98797.24;109138;1281;22440;-84
2022/06/23 14:35:58;;;;;;;4.70;1.70;;;;;;;31.18;32.37;98803.79;108937;1281;22579;-83
2022/06/23 14:39:15;;;;;;;;;;;;;;;;;;;;;
2022/06/23 14:42:44;;;;;;;4.90;1.40;;;;;;;31.14;32.24;98791.59;109114;1281;22463;-83
2022/06/23 14:46:16;;;;;;;4.60;1.30;;;;;;;31.20;32.46;98788.98;109219;1280;23151;-83
2022/06/23 14:49:39;;;;;;;3.80;1.20;;;;;;;31.29;32.49;98788.42;109178;1280;22505;-83
2022/06/23 14:52:34;;;;;;;4.20;1.30;;;;;;;31.29;32.16;98786.88;109193;1280;22399;-83
2022/06/23 14:55:25;;;;;;;5.00;1.40;;;;;;;31.33;32.44;98784.52;108771;1281;22465;-83
2022/06/23 14:58:47;;;;;;;;;;;;;;;;;;;;;
2022/06/23 15:01:32;;;;;;;5.30;1.30;;;;;;;31.39;32.22;98786.60;109105;1281;22490;-83
2022/06/23 15:04:28;;;;;;;4.00;1.20;;;;;;;31.42;32.12;98789.90;109108;1280;22468;-87
2022/06/23 15:07:26;;;;;;;4.90;1.20;;;;;;;31.41;31.97;98786.17;108703;1281;22288;-85
2022/06/23 15:10:58;;;;;;;;;;;;;;;;;;;;;